DEGGJ / D-EGGJ 7700 Squawk Report (18th of April, 2019)

Time Lat Lon Altitude Heading Speed Vertical Rate
2019-04-18 11:08:58 GMT 51.746304 11.324158 800 283 118 -384
2019-04-18 11:08:57 GMT 51.746304 11.324158 1,000 283 118 -384
2019-04-18 11:08:48 GMT 51.745285 11.331729 1,000 290 118 -640
2019-04-18 11:08:38 GMT 51.743835 11.340256 1,200 290 118 -640
2019-04-18 11:08:17 GMT 51.739506 11.357956 1,400 299 116 -512
2019-04-18 11:08:07 GMT 51.736954 11.365282 1,500 301 119 192
2019-04-18 11:07:54 GMT 51.733246 11.376343 1,600 300 122 -384
2019-04-18 11:07:47 GMT 51.731369 11.381836 1,600 299 119 -256
2019-04-18 11:07:30 GMT 51.727295 11.395272 1,600 296 120 64
2019-04-18 11:07:25 GMT 51.725830 11.399949 1,700 297 118 -192
2019-04-18 11:06:25 GMT 51.708130 11.445541 1,800 301 113 -320
2019-04-18 11:06:12 GMT 51.704685 11.454773 1,700 296 121 128
2019-04-18 11:05:58 GMT 51.701008 11.466904 1,600 301 124 192
2019-04-18 11:05:54 GMT 51.700031 11.469879 1,600 301 124 192
2019-04-18 11:05:02 GMT 51.686920 11.512187 1,600 296 119 -192
2019-04-18 11:04:53 GMT 51.684906 11.519388 1,700 294 120 -320
2019-04-18 11:04:43 GMT 51.682575 11.527786 1,700 295 122 0
2019-04-18 11:04:32 GMT 51.680153 11.536331 1,700 295 123 -512
2019-04-18 11:04:19 GMT 51.677265 11.546402 1,700 294 115 512
2019-04-18 11:04:00 GMT 51.673141 11.562071 1,700 294 119 256
2019-04-18 11:03:49 GMT 51.670376 11.571274 1,600 296 116 320
2019-04-18 11:03:45 GMT 51.669075 11.575317 1,600 297 118 384
2019-04-18 11:03:38 GMT 51.667770 11.579666 1,600 296 116 320
2019-04-18 11:03:31 GMT 51.665863 11.586122 1,600 295 111 -128
2019-04-18 11:03:24 GMT 51.664417 11.591110 1,600 295 110 -64
2019-04-18 11:03:20 GMT 51.663628 11.593857 1,600 295 110 -192
2019-04-18 11:03:09 GMT 51.661469 11.601859 1,600 294 109 512
2019-04-18 11:02:59 GMT 51.659485 11.609421 1,600 292 112 -128
2019-04-18 11:02:47 GMT 51.657257 11.618859 1,600 291 113 0
2019-04-18 11:02:38 GMT 51.655746 11.625911 1,600 291 116 -64
2019-04-18 11:02:23 GMT 51.652908 11.638382 1,600 290 117 64
2019-04-18 11:02:19 GMT 51.651989 11.642227 1,600 292 119 -384
2019-04-18 11:02:02 GMT 51.648731 11.655731 1,600 292 117 -64
2019-04-18 11:01:57 GMT 51.647461 11.660800 1,600 294 117 -64
2019-04-18 11:01:54 GMT 51.646774 11.663208 1,600 294 117 -256
2019-04-18 11:01:47 GMT 51.645611 11.667480 1,600 294 118 -256
2019-04-18 11:01:37 GMT 51.643238 11.675720 1,700 297 116 -64
2019-04-18 11:01:27 GMT 51.640816 11.683731 1,700 297 115 -64
2019-04-18 11:01:17 GMT 51.638443 11.691457 1,600 295 117 -64
2019-04-18 11:01:06 GMT 51.635975 11.700058 1,700 295 114 -128
2019-04-18 11:00:50 GMT 51.632629 11.711500 1,700 296 111 -192
2019-04-18 10:59:57 GMT 51.620682 11.751140 1,400 295 111 320
2019-04-18 10:59:54 GMT 51.620270 11.752699 1,400 295 111 320
2019-04-18 10:59:26 GMT 51.614227 11.774003 1,400 295 107 128
2019-04-18 10:59:21 GMT 51.613083 11.777863 1,400 295 107 128
2019-04-18 10:59:13 GMT 51.611584 11.783524 1,400 291 110 256
2019-04-18 10:59:03 GMT 51.609764 11.791763 1,300 289 117 -384
2019-04-18 10:58:52 GMT 51.608002 11.800504 1,400 285 119 -512
2019-04-18 10:58:19 GMT 51.603104 11.829455 1,500 285 118 -256
2019-04-18 10:58:07 GMT 51.601822 11.839179 1,600 281 118 64
2019-04-18 10:58:03 GMT 51.601364 11.843410 1,500 277 115 -256
2019-04-18 10:57:58 GMT 51.601063 11.846542 1,600 278 117 -256
2019-04-18 10:57:52 GMT 51.600723 11.851427 1,600 277 114 -128
2019-04-18 10:57:47 GMT 51.600361 11.856537 1,600 277 114 128
2019-04-18 10:57:39 GMT 51.599670 11.863676 1,600 280 117 -256
2019-04-18 10:57:32 GMT 51.599060 11.869125 1,600 280 115 0
2019-04-18 10:57:27 GMT 51.598572 11.873920 1,600 280 117 0
2019-04-18 10:57:14 GMT 51.597519 11.885425 1,600 278 120 -64
2019-04-18 10:57:11 GMT 51.597431 11.886826 1,600 279 120 0
2019-04-18 10:57:05 GMT 51.596966 11.892166 1,600 278 119 -128
2019-04-18 10:56:55 GMT 51.596081 11.901398 1,600 282 120 -128
2019-04-18 10:56:51 GMT 51.595570 11.905594 1,600 282 118 -448
2019-04-18 10:56:38 GMT 51.594223 11.915861 1,700 283 114 64
2019-04-18 10:56:33 GMT 51.593613 11.920319 1,700 280 119 128
2019-04-18 10:56:21 GMT 51.592728 11.931686 1,700 277 119 0
2019-04-18 10:56:12 GMT 51.592171 11.939392 1,700 279 121 0
2019-04-18 10:56:01 GMT 51.591064 11.948968 1,700 282 120 0
2019-04-18 10:55:50 GMT 51.590027 11.958313 1,700 279 117 128
2019-04-18 10:55:38 GMT 51.589005 11.967545 1,600 288 110 128
2019-04-18 10:55:27 GMT 51.587421 11.976395 1,600 288 111 128
2019-04-18 10:55:18 GMT 51.585800 11.984302 1,500 288 110 192
2019-04-18 10:55:07 GMT 51.584164 11.992950 1,500 286 109 -192
2019-04-18 10:54:56 GMT 51.582535 12.001953 1,600 287 108 -192
2019-04-18 10:54:45 GMT 51.581085 12.009690 1,600 286 109 384
2019-04-18 10:54:33 GMT 51.579620 12.018523 1,500 284 106 512
2019-04-18 10:54:22 GMT 51.578384 12.028099 1,500 281 105 -256
2019-04-18 10:54:15 GMT 51.578110 12.032318 1,500 272 100 64
2019-04-18 10:54:12 GMT 51.578110 12.034531 1,500 268 98 0
2019-04-18 10:54:01 GMT 51.578484 12.042999 1,400 269 97 512
2019-04-18 10:53:55 GMT 51.578568 12.047325 1,400 269 97 384
2019-04-18 10:53:51 GMT 51.578575 12.049789 1,400 269 95 384
2019-04-18 10:53:41 GMT 51.578384 12.057272 1,200 279 97 448
2019-04-18 10:53:35 GMT 51.577881 12.061652 1,200 283 92 576
2019-04-18 10:53:31 GMT 51.577320 12.064590 1,200 292 91 704
2019-04-18 10:53:20 GMT 51.574760 12.069931 1,000 326 87 960
2019-04-18 10:53:13 GMT 51.572479 12.071525 900 351 84 1024
2019-04-18 10:53:01 GMT 51.567719 12.071525 800 5 80 832
2019-04-18 10:52:57 GMT 51.566391 12.071228 700 7 79 640
2019-04-18 10:52:52 GMT 51.564518 12.070923 700 4 78 320
We lost coverage of the aircraft here for a total of 26 minutes
2019-04-18 10:26:25 GMT 51.579739 12.007141 600 202 83 -128
2019-04-18 10:26:16 GMT 51.583282 12.009764 600 206 86 0
2019-04-18 10:26:04 GMT 51.587933 12.013016 600 198 85 -384
2019-04-18 10:25:55 GMT 51.590725 12.014694 700 197 85 -320
2019-04-18 10:25:41 GMT 51.596127 12.017059 700 203 91 -384
2019-04-18 10:25:29 GMT 51.601524 12.020416 800 203 91 -384
2019-04-18 10:25:23 GMT 51.603241 12.021418 900 200 90 -320
2019-04-18 10:24:52 GMT 51.615955 12.029648 1,100 203 92 -448
2019-04-18 10:24:36 GMT 51.622330 12.033518 1,200 199 92 -448
2019-04-18 10:24:17 GMT 51.630016 12.037125 1,300 195 88 -704
2019-04-18 10:24:10 GMT 51.633316 12.037230 1,300 171 91 448
2019-04-18 10:23:51 GMT 51.640957 12.035751 1,400 179 95 -256
2019-04-18 10:23:46 GMT 51.643192 12.035675 1,500 179 95 -256
2019-04-18 10:23:39 GMT 51.646870 12.035599 1,500 180 93 -768
2019-04-18 10:23:11 GMT 51.658554 12.035828 1,800 183 86 -256
2019-04-18 10:23:01 GMT 51.662476 12.035894 1,800 178 86 -576
2019-04-18 10:22:54 GMT 51.665588 12.035894 1,900 156 83 -128
2019-04-18 10:22:43 GMT 51.669445 12.035522 2,000 168 83 -192
2019-04-18 10:22:33 GMT 51.673141 12.033370 2,000 157 85 -384
2019-04-18 10:22:11 GMT 51.680618 12.028046 2,200 160 81 -64
2019-04-18 10:22:03 GMT 51.683365 12.026291 2,200 158 79 -256
2019-04-18 10:21:51 GMT 51.687138 12.024078 2,300 164 73 0
2019-04-18 10:21:43 GMT 51.690079 12.022903 2,300 170 78 -192
2019-04-18 10:21:31 GMT 51.694027 12.021866 2,300 172 79 -128
2019-04-18 10:21:21 GMT 51.697704 12.021103 2,300 174 78 -64
2019-04-18 10:21:05 GMT 51.703720 12.020231 2,300 174 78 448
2019-04-18 10:21:00 GMT 51.705524 12.019730 2,300 176 89 1280
2019-04-18 10:20:50 GMT 51.709854 12.019043 2,100 174 88 704
2019-04-18 10:20:39 GMT 51.714066 12.018375 2,100 173 83 384
2019-04-18 10:20:29 GMT 51.718140 12.017670 2,000 173 91 -384
2019-04-18 10:20:16 GMT 51.723724 12.016742 2,100 174 87 -320
2019-04-18 10:20:08 GMT 51.726521 12.016449 2,100 175 85 64
2019-04-18 10:19:58 GMT 51.730335 12.016144 2,100 179 85 192
2019-04-18 10:19:49 GMT 51.734432 12.015991 2,100 176 87 -192
2019-04-18 10:19:38 GMT 51.738670 12.015533 2,100 178 86 -448
2019-04-18 10:19:27 GMT 51.742672 12.015381 2,200 177 83 -640
2019-04-18 10:19:16 GMT 51.746979 12.015257 2,300 182 82 0
2019-04-18 10:19:05 GMT 51.751328 12.015480 2,300 183 84 256
2019-04-18 10:18:54 GMT 51.755493 12.015554 2,200 177 82 64
2019-04-18 10:18:44 GMT 51.759480 12.014847 2,200 170 85 192
2019-04-18 10:18:34 GMT 51.763458 12.013698 2,200 169 85 -192
2019-04-18 10:18:22 GMT 51.767578 12.012939 2,300 178 79 -384
2019-04-18 10:18:13 GMT 51.771023 12.012711 2,300 176 79 256
2019-04-18 10:18:02 GMT 51.774933 12.011795 2,300 165 81 128
2019-04-18 10:17:52 GMT 51.778473 12.009964 2,300 158 77 448
2019-04-18 10:17:42 GMT 51.782288 12.007370 2,300 156 90 -704
2019-04-18 10:17:32 GMT 51.786060 12.004852 2,300 155 78 128
2019-04-18 10:17:20 GMT 51.789597 12.002106 2,300 155 84 704
2019-04-18 10:17:10 GMT 51.793182 11.999359 2,200 152 84 -192
2019-04-18 10:17:01 GMT 51.796581 11.996536 2,200 156 78 128
2019-04-18 10:16:49 GMT 51.800350 11.994171 2,200 160 82 -128
2019-04-18 10:16:38 GMT 51.804310 11.991882 2,200 161 81 0
2019-04-18 10:16:27 GMT 51.808357 11.989746 2,200 167 80 64
2019-04-18 10:16:17 GMT 51.812130 11.988525 2,200 170 81 -192
2019-04-18 10:16:06 GMT 51.816319 11.987610 2,200 175 81 128
2019-04-18 10:15:55 GMT 51.820320 11.986847 2,100 169 86 64
2019-04-18 10:15:44 GMT 51.824558 11.984787 2,200 155 77 -64
2019-04-18 10:15:33 GMT 51.827911 11.981888 2,100 149 78 576
2019-04-18 10:15:22 GMT 51.831299 11.978661 2,200 151 77 -320
2019-04-18 10:15:11 GMT 51.834751 11.975861 2,200 155 77 64
2019-04-18 10:15:00 GMT 51.838291 11.973267 2,100 156 78 64
2019-04-18 10:14:50 GMT 51.841782 11.971089 2,100 160 83 -64
2019-04-18 10:14:40 GMT 51.845554 11.968994 2,200 159 84 -64
2019-04-18 10:14:29 GMT 51.849472 11.966635 2,200 160 85 -256
2019-04-18 10:14:19 GMT 51.853374 11.964569 2,200 164 82 -256
2019-04-18 10:14:08 GMT 51.857609 11.962662 2,200 165 81 0
2019-04-18 10:13:55 GMT 51.861877 11.960919 2,200 166 83 128
2019-04-18 10:13:45 GMT 51.866364 11.959305 2,200 168 85 -192
2019-04-18 10:13:33 GMT 51.870575 11.957950 2,200 169 86 -128
2019-04-18 10:13:22 GMT 51.875015 11.956911 2,200 173 91 192
2019-04-18 10:13:11 GMT 51.884216 11.954907 2,400 175 88 0
2019-04-18 10:13:00 GMT 51.884216 11.954907 2,300 169 88 -64
2019-04-18 10:12:50 GMT 51.888195 11.953583 2,300 169 90 -256
2019-04-18 10:12:40 GMT 51.892639 11.952160 2,300 167 90 64
2019-04-18 10:12:29 GMT 51.896992 11.950928 2,400 171 85 -256
2019-04-18 10:12:18 GMT 51.901657 11.949844 2,400 172 85 -128
2019-04-18 10:12:08 GMT 51.905373 11.949044 2,400 171 85 0
2019-04-18 10:11:56 GMT 51.909805 11.948013 2,400 170 89 0
2019-04-18 10:11:46 GMT 51.914200 11.946945 2,400 172 93 256
2019-04-18 10:11:36 GMT 51.918686 11.946062 2,500 175 89 -128
2019-04-18 10:11:24 GMT 51.923172 11.945572 2,500 178 91 -64
2019-04-18 10:11:14 GMT 51.927658 11.946030 2,500 188 97 -256
2019-04-18 10:11:04 GMT 51.932373 11.946869 2,600 185 98 -128
2019-04-18 10:10:56 GMT 51.936050 11.947396 2,600 187 99 -192
2019-04-18 10:10:53 GMT 51.937260 11.947632 2,600 186 97 -64
2019-04-18 10:10:42 GMT 51.942078 11.948395 2,600 187 98 -384
2019-04-18 10:10:31 GMT 51.947178 11.949358 2,600 186 100 0
2019-04-18 10:10:21 GMT 51.952286 11.950150 2,700 185 106 -64
2019-04-18 10:10:09 GMT 51.957825 11.950684 2,700 183 102 -192
2019-04-18 10:09:59 GMT 51.962631 11.950692 2,700 182 104 64
2019-04-18 10:09:49 GMT 51.967484 11.950912 2,600 182 100 320
2019-04-18 10:09:38 GMT 51.972549 11.951242 2,600 182 102 -192
2019-04-18 10:09:33 GMT 51.974644 11.951242 2,600 178 101 320
2019-04-18 10:09:27 GMT 51.977371 11.951370 2,600 186 100 384
2019-04-18 10:09:21 GMT 51.980274 11.951948 2,600 189 98 192
2019-04-18 10:09:17 GMT 51.982361 11.952438 2,600 186 95 0
2019-04-18 10:09:11 GMT 51.984512 11.952744 2,600 191 97 128
2019-04-18 10:09:06 GMT 51.987026 11.953439 2,500 193 95 448
2019-04-18 10:09:00 GMT 51.989227 11.954346 2,500 195 98 128
2019-04-18 10:08:55 GMT 51.991680 11.955165 2,500 189 98 64
2019-04-18 10:08:52 GMT 51.993122 11.955401 2,500 184 96 64
2019-04-18 10:08:45 GMT 51.996101 11.955401 2,500 176 94 128
2019-04-18 10:08:42 GMT 51.997360 11.955244 2,500 172 93 -192
2019-04-18 10:08:32 GMT 52.001770 11.954422 2,500 177 91 -256
2019-04-18 10:08:24 GMT 52.005039 11.954224 2,500 180 91 64
2019-04-18 10:08:14 GMT 52.009464 11.954302 2,500 182 94 -128
2019-04-18 10:08:04 GMT 52.014072 11.954616 2,500 181 92 -128
2019-04-18 10:07:53 GMT 52.018341 11.954422 2,500 176 91 64
2019-04-18 10:07:42 GMT 52.022827 11.954041 2,500 179 89 -256
2019-04-18 10:07:32 GMT 52.027222 11.954575 2,600 188 98 192
2019-04-18 10:07:29 GMT 52.028362 11.954851 2,500 178 97 64
2019-04-18 10:07:22 GMT 52.031948 11.955479 2,500 178 97 64
2019-04-18 10:07:09 GMT 52.037815 11.955401 2,500 178 96 -128
2019-04-18 10:07:01 GMT 52.041000 11.955261 2,500 178 89 0
2019-04-18 10:06:51 GMT 52.045441 11.954803 2,600 173 89 -832
2019-04-18 10:06:48 GMT 52.046612 11.954616 2,600 173 85 -704
2019-04-18 10:06:40 GMT 52.049500 11.954224 2,600 176 84 64
2019-04-18 10:06:37 GMT 52.050896 11.954067 2,600 177 88 256
2019-04-18 10:06:29 GMT 52.054001 11.953812 2,600 176 94 -64
2019-04-18 10:06:26 GMT 52.055511 11.953659 2,600 175 93 -64
2019-04-18 10:06:20 GMT 52.058212 11.953201 2,600 174 90 0
2019-04-18 10:06:16 GMT 52.060135 11.952972 2,600 176 90 256
2019-04-18 10:06:09 GMT 52.062790 11.952667 2,600 175 92 192
2019-04-18 10:06:04 GMT 52.064861 11.952340 2,600 175 93 192
2019-04-18 10:05:59 GMT 52.067047 11.952105 2,500 176 93 896
2019-04-18 10:05:56 GMT 52.068558 11.951981 2,500 178 94 576
2019-04-18 10:05:49 GMT 52.071396 11.951981 2,400 181 96 128
2019-04-18 10:05:44 GMT 52.073380 11.951948 2,400 178 95 64
2019-04-18 10:05:38 GMT 52.075939 11.951791 2,400 176 93 -320
2019-04-18 10:05:29 GMT 52.080223 11.951163 2,500 167 88 -64
2019-04-18 10:05:22 GMT 52.082596 11.949986 2,500 158 86 -320
2019-04-18 10:05:18 GMT 52.084076 11.948929 2,500 155 86 -384
2019-04-18 10:05:07 GMT 52.087669 11.945827 2,600 149 83 128
2019-04-18 10:04:57 GMT 52.091492 11.942749 2,500 158 91 320
2019-04-18 10:04:46 GMT 52.095539 11.940020 2,500 159 88 -256
2019-04-18 10:04:41 GMT 52.097355 11.939078 2,500 170 88 192
2019-04-18 10:04:36 GMT 52.099503 11.938400 2,500 170 88 192
2019-04-18 10:04:26 GMT 52.104103 11.937038 2,500 167 93 0
2019-04-18 10:04:21 GMT 52.106197 11.936332 2,500 169 94 192
2019-04-18 10:04:15 GMT 52.108429 11.935730 2,500 172 93 -128
2019-04-18 10:04:10 GMT 52.110760 11.935311 2,400 174 92 384
2019-04-18 10:04:04 GMT 52.112961 11.934891 2,400 171 89 128
2019-04-18 10:03:54 GMT 52.117172 11.934052 2,400 174 88 -192
2019-04-18 10:03:49 GMT 52.119232 11.933820 2,400 176 86 0
2019-04-18 10:03:44 GMT 52.121235 11.933507 2,400 175 86 64
2019-04-18 10:03:33 GMT 52.125519 11.933114 2,400 177 91 -128
2019-04-18 10:03:22 GMT 52.130905 11.932755 2,400 177 92 -192
2019-04-18 10:03:13 GMT 52.134361 11.932408 2,400 176 93 -192
2019-04-18 10:03:00 GMT 52.139717 11.931780 2,400 176 94 128
2019-04-18 10:02:52 GMT 52.143208 11.931388 2,400 168 91 -192
2019-04-18 10:02:41 GMT 52.147293 11.929092 2,500 155 83 -192
2019-04-18 10:02:32 GMT 52.150726 11.926804 2,500 165 86 256
2019-04-18 10:02:21 GMT 52.155075 11.925430 2,500 170 90 -320
2019-04-18 10:02:11 GMT 52.159378 11.924591 2,500 176 93 320
2019-04-18 10:02:00 GMT 52.163864 11.923981 2,400 171 93 576
2019-04-18 10:01:51 GMT 52.167938 11.922836 2,300 171 90 448
2019-04-18 10:01:40 GMT 52.172535 11.921735 2,200 187 92 0
2019-04-18 10:01:29 GMT 52.176910 11.921108 2,300 178 93 -320
2019-04-18 10:01:19 GMT 52.181149 11.920872 2,400 175 92 64
2019-04-18 10:01:09 GMT 52.185791 11.920395 2,300 183 100 -192
2019-04-18 10:00:59 GMT 52.195255 11.922599 2,400 189 97 -320
2019-04-18 10:00:49 GMT 52.195255 11.922599 2,400 185 92 128
2019-04-18 10:00:38 GMT 52.199631 11.923070 2,300 184 92 -64
2019-04-18 10:00:35 GMT 52.200806 11.923218 2,400 186 90 -192
2019-04-18 10:00:26 GMT 52.204659 11.923854 2,400 187 91 0
2019-04-18 10:00:18 GMT 52.208336 11.924482 2,400 185 93 -192
2019-04-18 10:00:07 GMT 52.212803 11.925031 2,400 186 96 0
2019-04-18 09:59:56 GMT 52.217743 11.925888 2,500 186 95 -512
2019-04-18 09:59:46 GMT 52.222000 11.926422 2,500 183 96 512
2019-04-18 09:59:36 GMT 52.226440 11.926651 2,400 183 93 256
2019-04-18 09:59:25 GMT 52.231194 11.927072 2,300 185 99 512
2019-04-18 09:59:15 GMT 52.235893 11.927699 2,400 181 97 -64
2019-04-18 09:59:05 GMT 52.240456 11.927856 2,400 181 98 576
2019-04-18 09:58:55 GMT 52.245026 11.928101 2,300 185 98 -256
2019-04-18 09:58:45 GMT 52.249626 11.928484 2,400 182 86 0
2019-04-18 09:58:34 GMT 52.253769 11.928482 2,300 178 89 -256
2019-04-18 09:58:22 GMT 52.258255 11.927872 2,500 173 83 -448
2019-04-18 09:58:13 GMT 52.261871 11.926651 2,500 161 85 -128
2019-04-18 09:58:03 GMT 52.265736 11.924639 2,500 170 87 192
2019-04-18 09:57:52 GMT 52.270111 11.924325 2,400 184 94 704
2019-04-18 09:57:42 GMT 52.274487 11.924874 2,300 186 96 128
2019-04-18 09:57:35 GMT 52.277557 11.925345 2,300 182 90 128
2019-04-18 09:57:32 GMT 52.278999 11.925345 2,300 181 89 0
2019-04-18 09:57:25 GMT 52.281700 11.925267 2,300 164 84 -192
2019-04-18 09:57:22 GMT 52.283192 11.924874 2,300 169 90 0
2019-04-18 09:57:11 GMT 52.287521 11.923619 2,300 171 86 -64
2019-04-18 09:57:01 GMT 52.291569 11.922677 2,300 171 86 -320
2019-04-18 09:56:50 GMT 52.295517 11.921921 2,400 173 82 -192
2019-04-18 09:56:40 GMT 52.299484 11.920794 2,400 168 83 0
2019-04-18 09:56:33 GMT 52.302155 11.919708 2,400 163 82 -192
2019-04-18 09:56:30 GMT 52.303303 11.919146 2,400 163 82 -192
2019-04-18 09:56:19 GMT 52.306980 11.917184 2,400 162 82 64
2019-04-18 09:56:09 GMT 52.310760 11.915512 2,400 166 83 64
2019-04-18 09:55:59 GMT 52.314613 11.913967 2,400 164 83 0
2019-04-18 09:55:47 GMT 52.318943 11.912005 2,400 164 84 -64
2019-04-18 09:55:39 GMT 52.322388 11.910514 2,400 166 83 64
2019-04-18 09:55:28 GMT 52.326462 11.909180 2,400 170 86 0
2019-04-18 09:55:17 GMT 52.330486 11.907767 2,400 167 81 -192
2019-04-18 09:55:07 GMT 52.334152 11.906815 2,400 172 84 192
2019-04-18 09:54:57 GMT 52.338318 11.905594 2,400 167 85 -64
2019-04-18 09:54:46 GMT 52.342499 11.904079 2,400 167 88 128
2019-04-18 09:54:36 GMT 52.346546 11.902509 2,400 164 90 192
2019-04-18 09:54:25 GMT 52.350769 11.900711 2,400 163 89 128
2019-04-18 09:54:15 GMT 52.354881 11.898978 2,400 165 89 128
2019-04-18 09:54:04 GMT 52.358978 11.897016 2,300 164 84 128
2019-04-18 09:53:54 GMT 52.362888 11.895604 2,300 169 88 256
2019-04-18 09:53:43 GMT 52.367123 11.893799 2,300 159 88 -320
2019-04-18 09:53:34 GMT 52.370617 11.891052 2,300 147 82 256
2019-04-18 09:53:23 GMT 52.374069 11.887436 2,200 145 87 64
2019-04-18 09:53:12 GMT 52.377693 11.883440 2,300 147 84 -320
2019-04-18 09:53:02 GMT 52.381042 11.880615 2,300 159 84 -64
2019-04-18 09:52:53 GMT 52.384735 11.878662 2,300 164 84 128
2019-04-18 09:52:42 GMT 52.388855 11.876907 2,300 166 88 64
2019-04-18 09:52:31 GMT 52.393005 11.875201 2,300 166 87 -128
2019-04-18 09:52:22 GMT 52.397095 11.874008 2,300 173 93 64
2019-04-18 09:52:11 GMT 52.401619 11.873317 2,300 176 94 -64
2019-04-18 09:52:00 GMT 52.406067 11.873093 2,300 182 89 64
2019-04-18 09:51:50 GMT 52.410370 11.873631 2,300 188 93 64
2019-04-18 09:51:40 GMT 52.414795 11.874494 2,300 186 92 -128
2019-04-18 09:51:29 GMT 52.419170 11.875122 2,300 185 91 -64
2019-04-18 09:51:17 GMT 52.424755 11.875907 2,400 186 89 -256
2019-04-18 09:51:09 GMT 52.427582 11.876221 2,300 185 90 448
2019-04-18 09:50:20 GMT 52.448357 11.884853 2,400 202 99 256
2019-04-18 09:50:05 GMT 52.454315 11.888657 2,400 201 98 -320
2019-04-18 09:49:52 GMT 52.460037 11.893082 2,400 207 99 128
2019-04-18 09:49:41 GMT 52.465023 11.897095 2,400 206 104 -320
2019-04-18 09:49:32 GMT 52.468468 11.899684 2,500 201 100 256
2019-04-18 09:49:22 GMT 52.472893 11.902745 2,500 201 100 256
2019-04-18 09:49:12 GMT 52.477081 11.905413 2,400 200 104 -64
2019-04-18 09:49:01 GMT 52.482014 11.908316 2,500 200 101 -128
2019-04-18 09:48:51 GMT 52.486439 11.910828 2,500 187 94 384
2019-04-18 09:48:28 GMT 52.496796 11.912689 2,500 169 93 0
2019-04-18 09:48:25 GMT 52.497665 11.912460 2,400 164 91 -384
2019-04-18 09:48:21 GMT 52.499176 11.911926 2,400 164 91 -384
2019-04-18 09:48:17 GMT 52.500683 11.911142 2,500 161 87 -512
2019-04-18 09:48:12 GMT 52.502701 11.910095 2,500 165 85 -192
2019-04-18 09:48:09 GMT 52.504082 11.909494 2,500 165 86 -128
2019-04-18 09:47:56 GMT 52.509201 11.907767 2,500 169 91 -64
2019-04-18 09:47:26 GMT 52.521194 11.904373 2,500 167 85 128
2019-04-18 09:47:16 GMT 52.525314 11.903076 2,500 173 88 64
2019-04-18 09:46:57 GMT 52.533268 11.902980 2,500 186 90 128
2019-04-18 09:46:54 GMT 52.534378 11.903152 2,500 186 90 128
2019-04-18 09:46:42 GMT 52.539413 11.903839 2,500 184 93 0
2019-04-18 09:46:33 GMT 52.543442 11.904144 2,500 184 91 -128
2019-04-18 09:46:24 GMT 52.547234 11.904393 2,500 180 89 256
2019-04-18 09:46:11 GMT 52.552776 11.904471 2,500 178 92 -192
2019-04-18 09:46:00 GMT 52.556992 11.904297 2,500 180 89 -192
2019-04-18 09:45:50 GMT 52.561852 11.904236 2,500 176 86 -128
2019-04-18 09:45:14 GMT 52.574562 11.901254 2,500 167 64 1024
2019-04-18 09:45:04 GMT 52.577591 11.900101 2,300 164 72 1088
2019-04-18 09:44:52 GMT 52.581451 11.898743 2,300 168 69 704
2019-04-18 09:44:44 GMT 52.584011 11.897801 2,100 167 71 256
2019-04-18 09:44:35 GMT 52.586792 11.896896 2,100 175 68 640
2019-04-18 09:44:26 GMT 52.590042 11.896286 2,000 170 76 384
2019-04-18 09:44:15 GMT 52.593521 11.894989 1,900 163 68 128
2019-04-18 09:44:05 GMT 52.596722 11.893563 1,900 166 69 704
2019-04-18 09:43:50 GMT 52.601303 11.891937 1,700 168 72 384
2019-04-18 09:43:44 GMT 52.603516 11.891366 1,700 172 68 384
2019-04-18 09:43:32 GMT 52.607101 11.890660 1,600 175 69 768
2019-04-18 09:43:22 GMT 52.610687 11.890346 1,500 176 75 320
2019-04-18 09:43:12 GMT 52.613850 11.889797 1,500 173 66 320
2019-04-18 09:43:00 GMT 52.617809 11.888933 1,300 163 70 832
We lost coverage of the aircraft here for a total of 57 minutes
2019-04-18 08:45:39 GMT 52.588852 11.766663 1,500 4 107 -576
2019-04-18 08:45:30 GMT 52.584641 11.766281 1,600 2 106 -640
2019-04-18 08:45:20 GMT 52.579681 11.766122 1,700 2 102 -192
2019-04-18 08:45:09 GMT 52.574615 11.765442 1,800 7 97 -512
2019-04-18 08:44:58 GMT 52.569904 11.764474 1,800 7 99 0
2019-04-18 08:44:48 GMT 52.559479 11.762512 2,000 5 99 -512
2019-04-18 08:44:36 GMT 52.559479 11.762512 2,000 5 99 -512
2019-04-18 08:44:26 GMT 52.554703 11.761703 2,100 5 101 -704
2019-04-18 08:44:15 GMT 52.549564 11.761021 2,300 5 100 -640
2019-04-18 08:44:12 GMT 52.548523 11.760788 2,300 5 100 -640
2019-04-18 08:44:05 GMT 52.545410 11.760254 2,300 6 98 -640
2019-04-18 08:43:56 GMT 52.541061 11.759567 2,400 4 95 -448
2019-04-18 08:43:45 GMT 52.536530 11.758957 2,500 3 95 -384
2019-04-18 08:43:36 GMT 52.532059 11.758589 2,600 2 98 0
2019-04-18 08:43:23 GMT 52.526566 11.758196 2,600 2 96 -64
2019-04-18 08:43:14 GMT 52.522423 11.757804 2,600 10 92 -192
2019-04-18 08:43:04 GMT 52.518265 11.757278 2,500 7 95 -64
2019-04-18 08:42:53 GMT 52.513531 11.755842 2,600 13 90 0
2019-04-18 08:42:43 GMT 52.509521 11.753922 2,600 19 89 192
2019-04-18 08:42:33 GMT 52.505676 11.751404 2,500 23 90 64
2019-04-18 08:42:23 GMT 52.501602 11.748886 2,500 17 91 64
2019-04-18 08:42:09 GMT 52.496120 11.746111 2,500 11 93 0
2019-04-18 08:41:56 GMT 52.490753 11.743317 2,500 16 93 64
2019-04-18 08:41:49 GMT 52.488159 11.742031 2,500 17 92 64
2019-04-18 08:41:32 GMT 52.480408 11.738510 2,500 12 94 -64
2019-04-18 08:41:19 GMT 52.475189 11.736755 2,500 11 93 64
2019-04-18 08:41:07 GMT 52.470284 11.735203 2,500 11 93 64
2019-04-18 08:40:59 GMT 52.466282 11.733869 2,500 11 93 64
2019-04-18 08:40:56 GMT 52.462921 11.732788 2,500 10 94 64
2019-04-18 08:40:50 GMT 52.462921 11.732788 2,500 10 94 0
2019-04-18 08:40:39 GMT 52.458435 11.731415 2,500 11 94 0
2019-04-18 08:40:29 GMT 52.454132 11.730024 2,500 10 95 64
2019-04-18 08:40:25 GMT 52.452408 11.729553 2,500 22 91 0
2019-04-18 08:40:19 GMT 52.449757 11.728690 2,500 10 94 -64
2019-04-18 08:40:09 GMT 52.445377 11.727199 2,500 12 93 -64
2019-04-18 08:39:54 GMT 52.439301 11.724701 2,500 22 90 64
2019-04-18 08:39:46 GMT 52.436069 11.722883 2,500 20 90 64
2019-04-18 08:39:38 GMT 52.432762 11.720686 2,500 22 91 0
2019-04-18 08:39:27 GMT 52.428619 11.717861 2,500 22 91 0
2019-04-18 08:39:16 GMT 52.424423 11.714859 2,500 25 89 -64
2019-04-18 08:39:10 GMT 52.422104 11.712917 2,500 27 89 0
2019-04-18 08:39:07 GMT 52.421082 11.712036 2,500 27 89 0
2019-04-18 08:38:57 GMT 52.417236 11.708832 2,500 26 89 0
2019-04-18 08:38:46 GMT 52.413437 11.705780 2,500 26 89 0
2019-04-18 08:38:35 GMT 52.409500 11.702499 2,500 26 89 0
2019-04-18 08:38:26 GMT 52.405670 11.699419 2,500 25 89 -64
2019-04-18 08:38:15 GMT 52.401897 11.696437 2,500 25 89 64
2019-04-18 08:38:05 GMT 52.398056 11.693268 2,500 27 90 0
2019-04-18 08:37:55 GMT 52.394173 11.689924 2,500 27 89 -64
2019-04-18 08:37:44 GMT 52.390400 11.686628 2,500 27 89 -64
2019-04-18 08:37:34 GMT 52.386520 11.683273 2,500 28 87 -64
2019-04-18 08:37:23 GMT 52.382629 11.679611 2,500 20 91 -192
2019-04-18 08:37:12 GMT 52.378967 11.676331 2,500 27 89 -192
2019-04-18 08:37:02 GMT 52.375130 11.673131 2,500 20 91 -192
2019-04-18 08:36:51 GMT 52.371174 11.669913 2,500 28 90 64
2019-04-18 08:36:41 GMT 52.364914 11.664124 2,600 28 90 -192
2019-04-18 08:36:30 GMT 52.363682 11.663086 2,600 25 90 -128
2019-04-18 08:36:20 GMT 52.359768 11.660261 2,600 23 91 -64
2019-04-18 08:36:10 GMT 52.355766 11.657593 2,600 20 91 -192
2019-04-18 08:35:59 GMT 52.351482 11.655082 2,600 19 91 128
2019-04-18 08:35:49 GMT 52.347481 11.652727 2,600 19 93 -64
2019-04-18 08:35:39 GMT 52.343430 11.650530 2,600 20 90 64
2019-04-18 08:35:29 GMT 52.339188 11.647949 2,600 21 91 192
2019-04-18 08:35:18 GMT 52.335049 11.645194 2,600 22 92 -128
2019-04-18 08:35:08 GMT 52.331184 11.642447 2,600 22 90 0
2019-04-18 08:34:57 GMT 52.327103 11.639709 2,600 22 90 64
2019-04-18 08:34:47 GMT 52.323074 11.637039 2,600 21 91 64
2019-04-18 08:34:38 GMT 52.319176 11.634600 2,600 21 91 64
2019-04-18 08:34:26 GMT 52.314880 11.631699 2,600 23 90 64
2019-04-18 08:34:17 GMT 52.311035 11.629028 2,600 23 90 64
2019-04-18 08:34:06 GMT 52.306961 11.626205 2,500 21 91 0
2019-04-18 08:33:55 GMT 52.302837 11.623614 2,500 20 92 0
2019-04-18 08:33:45 GMT 52.298645 11.621024 2,500 21 91 64
2019-04-18 08:33:35 GMT 52.294689 11.618434 2,500 21 91 128
2019-04-18 08:33:24 GMT 52.290268 11.615845 2,500 19 92 0
2019-04-18 08:33:14 GMT 52.280869 11.611099 2,500 15 93 0
2019-04-18 08:33:01 GMT 52.280869 11.611099 2,500 14 93 0
2019-04-18 08:32:53 GMT 52.277653 11.609802 2,500 14 93 64
2019-04-18 08:32:43 GMT 52.273636 11.607971 2,500 17 92 64
2019-04-18 08:32:32 GMT 52.269085 11.605408 2,500 20 91 0
2019-04-18 08:32:21 GMT 52.264801 11.602631 2,500 21 91 0
2019-04-18 08:32:12 GMT 52.261265 11.600228 2,500 23 91 64
2019-04-18 08:32:02 GMT 52.257027 11.597168 2,500 24 90 64
2019-04-18 08:31:50 GMT 52.252487 11.593933 2,500 23 91 64
2019-04-18 08:31:41 GMT 52.249237 11.591721 2,500 28 87 64
2019-04-18 08:31:31 GMT 52.245117 11.588745 2,500 24 89 -64
2019-04-18 08:31:21 GMT 52.241482 11.585946 2,500 28 87 64
2019-04-18 08:31:18 GMT 52.240402 11.585083 2,500 31 89 -128
2019-04-18 08:31:10 GMT 52.237522 11.582415 2,500 30 88 128
2019-04-18 08:30:59 GMT 52.233765 11.578674 2,500 31 87 -128
2019-04-18 08:30:49 GMT 52.230309 11.575195 2,500 30 88 -64
2019-04-18 08:30:39 GMT 52.226864 11.571899 2,500 29 90 128
2019-04-18 08:30:27 GMT 52.222412 11.567841 2,500 29 90 -64
2019-04-18 08:30:18 GMT 52.219181 11.564837 2,500 31 87 -64
2019-04-18 08:30:08 GMT 52.215832 11.561305 2,500 33 87 64
2019-04-18 08:29:58 GMT 52.212250 11.557541 2,500 31 89 64
2019-04-18 08:29:48 GMT 52.208706 11.554086 2,500 28 89 -64
2019-04-18 08:29:38 GMT 52.205029 11.550947 2,500 26 90 64
2019-04-18 08:29:28 GMT 52.201164 11.548043 2,500 22 91 -64
2019-04-18 08:29:15 GMT 52.196369 11.545140 2,500 19 91 0
2019-04-18 08:29:06 GMT 52.192612 11.542969 2,500 20 91 128
2019-04-18 08:28:56 GMT 52.188412 11.540353 2,400 19 93 -64
2019-04-18 08:28:45 GMT 52.184280 11.537933 2,500 21 91 0
2019-04-18 08:28:35 GMT 52.180172 11.535174 2,500 23 92 0
2019-04-18 08:28:27 GMT 52.176865 11.532974 2,500 21 93 -64
2019-04-18 08:28:24 GMT 52.175629 11.532211 2,500 20 93 -64
2019-04-18 08:28:14 GMT 52.171791 11.529837 2,500 20 91 64
2019-04-18 08:28:04 GMT 52.167694 11.527405 2,500 20 91 64
2019-04-18 08:27:54 GMT 52.163773 11.524963 2,500 21 92 64
2019-04-18 08:27:46 GMT 52.160431 11.522775 2,400 22 92 64
2019-04-18 08:27:42 GMT 52.158897 11.521755 2,400 22 92 64
2019-04-18 08:27:36 GMT 52.156475 11.520185 2,400 22 92 0
2019-04-18 08:27:30 GMT 52.153885 11.518478 2,400 22 92 0
2019-04-18 08:27:25 GMT 52.150040 11.515884 2,400 22 92 0
2019-04-18 08:27:14 GMT 52.143951 11.511945 2,400 21 93 64
2019-04-18 08:27:05 GMT 52.143951 11.511945 2,400 21 94 0
2019-04-18 08:27:01 GMT 52.142231 11.510847 2,400 20 93 64
2019-04-18 08:26:54 GMT 52.139832 11.509399 2,400 20 94 64
2019-04-18 08:26:48 GMT 52.137131 11.507797 2,400 19 94 0
2019-04-18 08:26:44 GMT 52.135712 11.507002 2,400 20 94 0
2019-04-18 08:26:41 GMT 52.134430 11.506195 2,400 21 92 0
2019-04-18 08:26:35 GMT 52.131710 11.504490 2,400 21 93 -64
2019-04-18 08:26:24 GMT 52.127472 11.501822 2,400 21 92 0
2019-04-18 08:26:14 GMT 52.123444 11.499252 2,400 20 93 64
2019-04-18 08:26:07 GMT 52.120926 11.497726 2,400 20 93 0
2019-04-18 08:26:04 GMT 52.118443 11.496172 2,400 19 94 -64
2019-04-18 08:25:51 GMT 52.114243 11.493835 2,400 18 93 -64
2019-04-18 08:25:44 GMT 52.111084 11.492157 2,400 18 93 64
2019-04-18 08:25:33 GMT 52.106850 11.489816 2,400 19 94 -64
2019-04-18 08:25:23 GMT 52.102570 11.487383 2,400 20 92 -64
2019-04-18 08:25:13 GMT 52.098495 11.484909 2,400 20 92 64
2019-04-18 08:25:02 GMT 52.094280 11.482361 2,400 20 92 0
2019-04-18 08:24:56 GMT 52.091858 11.480942 2,400 20 93 64
2019-04-18 08:24:52 GMT 52.090347 11.480026 2,400 20 93 0
2019-04-18 08:24:42 GMT 52.086136 11.477356 2,400 20 93 0
2019-04-18 08:24:32 GMT 52.082062 11.475067 2,400 18 93 -64
2019-04-18 08:24:27 GMT 52.079910 11.473846 2,400 18 93 64
2019-04-18 08:24:22 GMT 52.077896 11.472709 2,400 18 93 64
2019-04-18 08:24:17 GMT 52.075382 11.471375 2,400 17 94 0
2019-04-18 08:24:11 GMT 52.073410 11.470337 2,400 17 94 0
2019-04-18 08:24:01 GMT 52.069427 11.468201 2,400 18 94 0
2019-04-18 08:23:51 GMT 52.065170 11.465759 2,400 20 95 128
2019-04-18 08:23:41 GMT 52.060638 11.463242 2,400 15 96 -192
2019-04-18 08:23:31 GMT 52.056435 11.461722 2,400 11 95 64
2019-04-18 08:23:21 GMT 52.052032 11.460114 2,400 14 98 64
2019-04-18 08:23:10 GMT 52.047588 11.457877 2,400 19 93 -192
2019-04-18 08:23:06 GMT 52.045990 11.456985 2,400 19 91 128
2019-04-18 08:23:00 GMT 52.043633 11.455601 2,400 19 91 128
2019-04-18 08:22:53 GMT 52.040771 11.454010 2,400 19 92 192
2019-04-18 08:22:50 GMT 52.039444 11.453247 2,400 18 94 128
2019-04-18 08:22:39 GMT 52.035004 11.451035 2,400 15 96 -64
2019-04-18 08:22:29 GMT 52.030655 11.449356 2,400 12 96 0
2019-04-18 08:22:26 GMT 52.029419 11.448898 2,400 12 96 0
2019-04-18 08:22:19 GMT 52.026222 11.447675 2,400 13 95 0
2019-04-18 08:22:16 GMT 52.024658 11.447144 2,400 13 95 64
2019-04-18 08:22:06 GMT 52.020405 11.445400 2,400 15 95 0
2019-04-18 08:21:59 GMT 52.017471 11.444168 2,400 14 95 -64
2019-04-18 08:21:55 GMT 52.015797 11.443438 2,400 14 95 -64
2019-04-18 08:21:49 GMT 52.013260 11.442261 2,400 16 93 64
2019-04-18 08:21:43 GMT 52.010742 11.440964 2,400 19 93 64
2019-04-18 08:21:28 GMT 52.004807 11.437552 2,400 19 93 0
2019-04-18 08:21:25 GMT 52.003510 11.436768 2,400 19 93 128
2019-04-18 08:21:18 GMT 52.000851 11.435277 2,400 18 93 -128
2019-04-18 08:21:11 GMT 51.997917 11.433707 2,400 18 92 -64
2019-04-18 08:21:08 GMT 51.996616 11.432922 2,400 18 93 -128
2019-04-18 08:21:03 GMT 51.994705 11.431902 2,400 19 92 0
2019-04-18 08:20:55 GMT 51.990829 11.429749 2,400 18 91 64
2019-04-18 08:20:44 GMT 51.986794 11.427586 2,400 18 94 64
2019-04-18 08:20:34 GMT 51.982555 11.425232 2,400 18 93 -64
2019-04-18 08:20:27 GMT 51.980087 11.423898 2,400 24 93 -64
2019-04-18 08:20:21 GMT 51.977463 11.422501 2,300 18 93 192
2019-04-18 08:20:13 GMT 51.974270 11.420680 2,300 20 94 -64
2019-04-18 08:19:55 GMT 51.967209 11.415634 2,300 25 92 64
2019-04-18 08:19:52 GMT 51.966019 11.414719 2,300 26 93 192
2019-04-18 08:19:42 GMT 51.962120 11.411499 2,300 26 94 -128
2019-04-18 08:19:33 GMT 51.958488 11.408595 2,300 26 93 -128
2019-04-18 08:19:30 GMT 51.957092 11.407497 2,300 26 93 -128
2019-04-18 08:19:23 GMT 51.954254 11.405143 2,400 26 91 -64
2019-04-18 08:19:08 GMT 51.948898 11.400748 2,400 28 93 0
2019-04-18 08:18:57 GMT 51.944756 11.397217 2,400 27 93 -128
2019-04-18 08:18:52 GMT 51.943035 11.395726 2,400 27 92 -192
2019-04-18 08:18:42 GMT 51.938889 11.392273 2,400 29 92 128
2019-04-18 08:18:29 GMT 51.934280 11.388114 2,400 28 91 -128
2019-04-18 08:18:21 GMT 51.931301 11.385446 2,400 30 91 64
2019-04-18 08:18:10 GMT 51.927299 11.381522 2,400 31 91 -128
2019-04-18 08:18:00 GMT 51.923759 11.377677 2,400 36 88 128
2019-04-18 08:17:50 GMT 51.920502 11.373832 2,400 37 89 0
2019-04-18 08:17:39 GMT 51.916920 11.369123 2,400 41 87 0
2019-04-18 08:17:29 GMT 51.914078 11.364807 2,400 45 84 64
2019-04-18 08:17:16 GMT 51.910767 11.359024 2,400 48 82 192
2019-04-18 08:17:04 GMT 51.907654 11.353302 2,400 48 87 0
2019-04-18 08:16:58 GMT 51.905884 11.350525 2,400 42 87 -256
2019-04-18 08:16:51 GMT 51.903465 11.347229 2,400 38 86 64
2019-04-18 08:16:48 GMT 51.902767 11.346287 2,400 38 87 64
2019-04-18 08:16:36 GMT 51.898682 11.341324 2,400 36 87 64
2019-04-18 08:16:31 GMT 51.897320 11.339696 2,400 36 87 64
2019-04-18 08:16:20 GMT 51.893223 11.334915 2,400 35 86 128
2019-04-18 08:16:15 GMT 51.891968 11.333466 2,400 35 86 128
2019-04-18 08:16:05 GMT 51.888615 11.329651 2,400 34 89 256
2019-04-18 08:15:59 GMT 51.886276 11.327127 2,400 30 94 -64
2019-04-18 08:15:52 GMT 51.883911 11.324768 2,400 31 94 0
2019-04-18 08:15:41 GMT 51.879349 11.320877 2,400 31 88 0
2019-04-18 08:15:34 GMT 51.877350 11.319036 2,400 31 88 0
2019-04-18 08:15:29 GMT 51.875244 11.316957 2,400 34 89 192
2019-04-18 08:15:26 GMT 51.874462 11.316071 2,400 33 88 128
2019-04-18 08:15:16 GMT 51.871170 11.312206 2,400 39 88 0
2019-04-18 08:15:10 GMT 51.868362 11.308136 2,400 44 86 -192
2019-04-18 08:15:07 GMT 51.868103 11.307752 2,400 45 85 -128
2019-04-18 08:14:59 GMT 51.866177 11.304474 2,400 48 88 -64
2019-04-18 08:14:54 GMT 51.865036 11.302259 2,400 50 86 192
2019-04-18 08:14:48 GMT 51.863022 11.298770 2,400 44 89 -64
2019-04-18 08:14:44 GMT 51.862244 11.297583 2,400 45 88 -128
2019-04-18 08:14:36 GMT 51.859909 11.293723 2,400 46 87 -64
2019-04-18 08:14:27 GMT 51.857208 11.289343 2,400 41 90 64
2019-04-18 08:14:24 GMT 51.856445 11.288223 2,400 42 89 -64
2019-04-18 08:14:16 GMT 51.853607 11.283951 2,400 41 89 -128
2019-04-18 08:14:13 GMT 51.852997 11.283107 2,500 41 89 -128
2019-04-18 08:14:09 GMT 51.851280 11.280670 2,500 40 89 -128
2019-04-18 08:14:06 GMT 51.850800 11.279990 2,500 39 89 -64
2019-04-18 08:13:58 GMT 51.846390 11.273880 2,500 41 90 64
2019-04-18 08:13:49 GMT 51.845554 11.272736 2,500 41 90 0
2019-04-18 08:13:42 GMT 51.843155 11.269671 2,500 38 88 64
2019-04-18 08:13:33 GMT 51.840340 11.265640 2,500 45 88 -128
2019-04-18 08:13:26 GMT 51.838531 11.262545 2,500 48 85 -128
2019-04-18 08:13:22 GMT 51.837315 11.260223 2,500 50 85 320
2019-04-18 08:13:17 GMT 51.835968 11.257423 2,500 50 91 192
2019-04-18 08:13:14 GMT 51.835312 11.256180 2,500 40 92 -256
2019-04-18 08:13:04 GMT 51.831802 11.251188 2,500 34 87 128
2019-04-18 08:12:50 GMT 51.827545 11.246808 2,500 20 72 448
2019-04-18 08:12:42 GMT 51.824699 11.244736 2,500 20 75 256
2019-04-18 08:12:39 GMT 51.823906 11.244278 2,500 20 72 448
2019-04-18 08:12:32 GMT 51.819717 11.241389 2,400 30 73 640
2019-04-18 08:12:26 GMT 51.819717 11.241389 2,300 31 74 384
2019-04-18 08:12:19 GMT 51.817806 11.239548 2,300 25 72 512
2019-04-18 08:12:16 GMT 51.816460 11.238480 2,300 25 72 704
2019-04-18 08:12:11 GMT 51.815414 11.237677 2,200 26 74 832
2019-04-18 08:12:06 GMT 51.813858 11.236416 2,200 27 76 512
2019-04-18 08:12:03 GMT 51.812393 11.235451 2,200 22 77 320
2019-04-18 08:12:00 GMT 51.811432 11.235046 2,100 9 81 512
2019-04-18 08:11:53 GMT 51.808964 11.234512 2,100 4 82 448
2019-04-18 08:11:42 GMT 51.804771 11.234283 2,000 356 83 576
2019-04-18 08:11:31 GMT 51.800724 11.234970 1,900 350 83 576

Making use of Plane Finder data

You are free to use the raw flight data, aircraft information and images provided in this report for your own purposes provided the data is correctly attributed to Plane Finder. We ask that you please credit Plane Finder and link to planefinder.net in close proximity to the content.

Optionally one of the following logos (no smaller then 150x24px) can be used and must link to planefinder.net

Embedding the Plane Finder map

You are welcome to embed the Plane Finder playback map on your website to offer visitors a more interactive experience. We suggest using the following HTML code:

<iframe src="//planefinder.net/data/report/DEGGJ-D-EGGJ-7700-squawk-2019-04-18/map" width="800" height="600" seamless="seamless"></iframe>

Where our data comes from

Plane Finder has a global network of data feeds and antenna radars that receive data broadcast directly from aircraft. The primary technologies used are ADS-B and MLAT. We also show feeds from the FAA and a FLARM glider feed.

Click here to find out more about the Plane Finder network.

How we collect our data